createdAt,value
2018-05-07T00:00:09.165Z,24.23
2018-05-07T00:02:38.880Z,26.43
2018-05-07T00:05:08.610Z,22.20
2018-05-07T00:07:38.365Z,21.90
2018-05-07T00:10:08.075Z,22.03
2018-05-07T00:12:37.794Z,25.90
2018-05-07T00:15:07.586Z,22.13
2018-05-07T00:17:37.294Z,22.97
2018-05-07T00:20:07.048Z,24.30
2018-05-07T00:22:36.755Z,27.27
2018-05-07T00:25:06.555Z,20.93
2018-05-07T00:27:36.301Z,20.40
2018-05-07T00:30:06.060Z,20.63
2018-05-07T00:32:35.801Z,19.13
2018-05-07T00:35:05.561Z,18.27
2018-05-07T00:37:35.277Z,16.90
2018-05-07T00:40:05.029Z,18.13
2018-05-07T00:42:34.754Z,17.13
2018-05-07T00:45:04.476Z,16.70
2018-05-07T00:47:34.228Z,16.80
2018-05-07T00:50:03.975Z,16.60
2018-05-07T00:52:33.809Z,18.57
2018-05-07T00:55:15.364Z,14.83
2018-05-07T00:57:45.071Z,23.23
2018-05-07T01:00:14.775Z,20.30
2018-05-07T01:02:44.532Z,18.43
2018-05-07T01:05:14.267Z,15.73
2018-05-07T01:07:44.025Z,15.50
2018-05-07T01:10:13.730Z,17.77
2018-05-07T01:12:43.447Z,28.17
2018-05-07T01:15:13.219Z,17.37
2018-05-07T01:17:42.919Z,23.97
2018-05-07T01:20:12.619Z,17.97
2018-05-07T01:22:42.374Z,20.03
2018-05-07T01:25:12.094Z,16.67
2018-05-07T01:27:41.824Z,19.03
2018-05-07T01:30:11.569Z,18.17
2018-05-07T01:32:41.282Z,20.47
2018-05-07T01:35:11.025Z,16.13
2018-05-07T01:37:40.761Z,19.80
2018-05-07T01:40:10.469Z,17.07
2018-05-07T01:42:40.227Z,16.77
2018-05-07T01:45:09.949Z,19.10
2018-05-07T01:47:39.726Z,17.20
2018-05-07T01:50:09.396Z,16.73
2018-05-07T01:52:39.101Z,16.00
2018-05-07T01:55:08.836Z,20.80
2018-05-07T01:57:38.605Z,22.67
2018-05-07T02:00:08.353Z,17.27
2018-05-07T02:02:38.115Z,19.67
2018-05-07T02:05:07.851Z,15.93
2018-05-07T02:07:37.580Z,23.67
2018-05-07T02:10:07.315Z,22.73
2018-05-07T02:12:37.128Z,20.83
2018-05-07T02:15:06.883Z,18.50
2018-05-07T02:17:36.577Z,18.97
2018-05-07T02:20:06.280Z,19.10
2018-05-07T02:22:36.032Z,24.47
2018-05-07T02:25:05.768Z,21.37
2018-05-07T02:27:35.519Z,18.33
2018-05-07T02:30:05.219Z,20.67
2018-05-07T02:32:34.947Z,19.27
2018-05-07T02:35:04.715Z,23.30
2018-05-07T02:37:34.415Z,21.20
2018-05-07T02:40:04.166Z,23.53
2018-05-07T02:42:33.924Z,22.53
2018-05-07T02:45:03.680Z,21.53
2018-05-07T02:47:33.460Z,20.57
2018-05-07T02:50:03.155Z,23.33
2018-05-07T02:52:32.849Z,24.17
2018-05-07T02:55:02.617Z,25.40
2018-05-07T02:57:32.361Z,25.50
2018-05-07T03:00:02.059Z,24.17
2018-05-07T03:02:31.829Z,25.63
2018-05-07T03:05:01.559Z,25.17
2018-05-07T03:07:31.380Z,26.30
2018-05-07T03:10:01.106Z,31.50
2018-05-07T03:12:30.832Z,26.53
2018-05-07T03:15:00.596Z,22.27
2018-05-07T03:17:30.335Z,23.10
2018-05-07T03:20:00.106Z,23.33
2018-05-07T03:22:29.853Z,25.87
2018-05-07T03:24:59.563Z,25.23
2018-05-07T03:27:29.325Z,26.73
2018-05-07T03:29:59.037Z,24.17
2018-05-07T03:32:28.756Z,24.17
2018-05-07T03:34:58.517Z,23.57
2018-05-07T03:37:28.226Z,25.30
2018-05-07T03:39:57.936Z,24.20
2018-05-07T03:42:27.659Z,24.70
2018-05-07T03:44:57.420Z,22.13
2018-05-07T03:47:27.173Z,24.33
2018-05-07T03:49:56.855Z,23.00
2018-05-07T03:52:26.583Z,21.70
2018-05-07T03:54:56.265Z,22.13
2018-05-07T03:57:25.965Z,21.43
2018-05-07T03:59:55.704Z,24.07
2018-05-07T04:02:25.392Z,18.97
2018-05-07T04:04:55.178Z,18.67
2018-05-07T04:07:24.954Z,20.33
2018-05-07T04:09:54.657Z,18.43
2018-05-07T04:12:24.456Z,17.30
2018-05-07T04:14:54.146Z,20.63
2018-05-07T04:17:36.433Z,18.60
2018-05-07T04:20:17.945Z,20.50
2018-05-07T04:22:59.291Z,21.93
2018-05-07T04:25:29.041Z,19.93
2018-05-07T04:27:58.800Z,20.27
2018-05-07T04:30:28.547Z,23.10
2018-05-07T04:32:58.230Z,23.67
2018-05-07T04:35:27.969Z,19.87
2018-05-07T04:37:57.714Z,18.13
2018-05-07T04:40:27.413Z,19.50
2018-05-07T04:42:57.150Z,17.60
2018-05-07T04:45:26.861Z,18.43
2018-05-07T04:47:56.595Z,18.77
2018-05-07T04:50:26.331Z,20.47
2018-05-07T04:52:56.072Z,18.00
2018-05-07T04:55:25.816Z,18.53
2018-05-07T04:57:55.543Z,18.93
2018-05-07T05:00:25.311Z,19.23
2018-05-07T05:02:55.082Z,19.70
2018-05-07T05:05:24.870Z,18.43
2018-05-07T05:07:54.606Z,17.63
2018-05-07T05:10:24.341Z,19.17
2018-05-07T05:12:54.138Z,17.30
2018-05-07T05:15:23.897Z,19.33
2018-05-07T05:17:53.657Z,19.10
2018-05-07T05:20:23.413Z,17.93
2018-05-07T05:22:53.167Z,18.30
2018-05-07T05:25:22.938Z,19.57
2018-05-07T05:27:52.654Z,20.07
2018-05-07T05:30:22.344Z,19.47
2018-05-07T05:32:52.077Z,16.80
2018-05-07T05:35:21.770Z,18.00
2018-05-07T05:37:51.474Z,17.33
2018-05-07T05:40:21.239Z,18.13
2018-05-07T05:42:51.032Z,16.30
2018-05-07T05:45:20.821Z,19.47
2018-05-07T05:47:50.574Z,17.77
2018-05-07T05:50:20.387Z,20.07
2018-05-07T05:52:50.101Z,19.40
2018-05-07T05:55:19.810Z,20.30
2018-05-07T05:57:49.529Z,16.23
2018-05-07T06:00:19.238Z,17.80
2018-05-07T06:02:48.937Z,19.00
2018-05-07T06:05:18.691Z,19.27
2018-05-07T06:07:48.433Z,18.53
2018-05-07T06:10:18.230Z,20.93
2018-05-07T06:12:47.960Z,20.87
2018-05-07T06:15:17.699Z,18.37
2018-05-07T06:17:47.483Z,19.20
2018-05-07T06:20:17.291Z,18.93
2018-05-07T06:22:47.050Z,19.33
2018-05-07T06:25:16.780Z,18.07
2018-05-07T06:27:46.508Z,19.33
2018-05-07T06:30:16.236Z,19.77
2018-05-07T06:32:46.000Z,25.30
2018-05-07T06:35:15.763Z,24.27
2018-05-07T06:37:45.515Z,22.63
2018-05-07T06:40:15.217Z,23.97
2018-05-07T06:42:44.991Z,21.10
2018-05-07T06:45:14.718Z,25.93
2018-05-07T06:47:44.553Z,23.43
2018-05-07T06:50:14.324Z,19.10
2018-05-07T06:52:44.049Z,17.93
2018-05-07T06:55:13.827Z,17.73
2018-05-07T06:57:43.572Z,20.27
2018-05-07T07:00:13.316Z,16.80
2018-05-07T07:02:43.142Z,17.73
2018-05-07T07:05:12.807Z,14.53
2018-05-07T07:07:42.641Z,17.87
2018-05-07T07:10:12.460Z,16.60
2018-05-07T07:12:42.204Z,15.50
2018-05-07T07:15:11.939Z,14.27
2018-05-07T07:17:41.685Z,12.93
2018-05-07T07:20:11.506Z,17.97
2018-05-07T07:22:41.216Z,17.53
2018-05-07T07:25:11.048Z,15.23
2018-05-07T07:27:40.853Z,13.20
2018-05-07T07:30:10.580Z,18.00
2018-05-07T07:32:40.291Z,14.53
2018-05-07T07:35:10.004Z,16.23
2018-05-07T07:37:39.774Z,12.90
2018-05-07T07:40:09.590Z,12.73
2018-05-07T07:42:39.345Z,13.37
2018-05-07T07:45:09.116Z,16.37
2018-05-07T07:47:38.905Z,10.57
2018-05-07T07:50:08.655Z,11.70
2018-05-07T07:52:38.415Z,13.50
2018-05-07T07:55:08.237Z,11.67
2018-05-07T07:57:38.013Z,10.80
2018-05-07T08:00:07.891Z,10.47
2018-05-07T08:02:37.741Z,12.10
2018-05-07T08:05:07.483Z,11.07
2018-05-07T08:07:37.252Z,13.50
2018-05-07T08:10:07.066Z,13.47
2018-05-07T08:12:36.884Z,10.43
2018-05-07T08:15:06.826Z,12.23
2018-05-07T08:17:36.565Z,11.37
2018-05-07T08:20:06.262Z,9.73
2018-05-07T08:22:36.140Z,11.50
2018-05-07T08:25:06.026Z,13.13
2018-05-07T08:27:35.848Z,13.40
2018-05-07T08:30:05.573Z,9.33
2018-05-07T08:32:35.285Z,9.87
2018-05-07T08:35:05.124Z,15.73
2018-05-07T08:37:34.898Z,8.40
2018-05-07T08:40:04.779Z,7.27
2018-05-07T08:42:34.533Z,10.20
2018-05-07T08:45:04.298Z,7.87
2018-05-07T08:47:34.038Z,10.50
2018-05-07T08:50:03.779Z,8.20
2018-05-07T08:52:33.527Z,8.33
2018-05-07T08:55:03.307Z,10.07
2018-05-07T08:57:33.043Z,8.97
2018-05-07T09:00:02.837Z,8.70
2018-05-07T09:02:32.561Z,12.03
2018-05-07T09:05:02.244Z,9.47
2018-05-07T09:07:32.042Z,9.83
2018-05-07T09:10:01.715Z,8.23
2018-05-07T09:12:31.477Z,8.00
2018-05-07T09:15:01.262Z,7.20
2018-05-07T09:17:31.054Z,9.03
2018-05-07T09:20:00.957Z,9.13
2018-05-07T09:22:30.678Z,8.87
2018-05-07T09:25:00.419Z,10.30
2018-05-07T09:27:30.195Z,7.80
2018-05-07T09:29:59.933Z,8.60
2018-05-07T09:32:29.685Z,11.83
2018-05-07T09:34:59.422Z,7.90
2018-05-07T09:37:29.206Z,11.73
2018-05-07T09:39:58.949Z,8.10
2018-05-07T09:42:28.725Z,7.97
2018-05-07T09:44:58.428Z,6.77
2018-05-07T09:47:28.154Z,7.20
2018-05-07T09:49:57.927Z,7.87
2018-05-07T09:52:27.687Z,8.93
2018-05-07T09:54:57.477Z,8.00
2018-05-07T09:57:27.181Z,8.33
2018-05-07T09:59:56.939Z,7.70
2018-05-07T10:02:26.783Z,7.67
2018-05-07T10:04:56.520Z,7.87
2018-05-07T10:07:26.280Z,8.53
2018-05-07T10:09:56.006Z,8.73
2018-05-07T10:12:25.713Z,6.43
2018-05-07T10:14:55.421Z,7.13
2018-05-07T10:17:25.150Z,7.33
2018-05-07T10:19:54.951Z,11.77
2018-05-07T10:22:24.701Z,5.80
2018-05-07T10:24:54.474Z,6.90
2018-05-07T10:27:24.195Z,6.60
2018-05-07T10:29:53.981Z,6.83
2018-05-07T10:32:23.737Z,8.23
2018-05-07T10:34:53.493Z,6.73
2018-05-07T10:37:23.281Z,8.23
2018-05-07T10:39:52.987Z,6.87
2018-05-07T10:42:22.770Z,6.97
2018-05-07T10:44:52.532Z,7.57
2018-05-07T10:47:22.355Z,6.40
2018-05-07T10:49:52.143Z,6.80
2018-05-07T10:52:21.850Z,6.47
2018-05-07T10:54:51.576Z,6.13
2018-05-07T10:57:21.311Z,7.20
2018-05-07T10:59:51.013Z,7.57
2018-05-07T11:02:20.743Z,10.10
2018-05-07T11:04:50.465Z,7.37
2018-05-07T11:07:20.236Z,6.97
2018-05-07T11:09:49.929Z,8.13
2018-05-07T11:12:19.754Z,7.23
2018-05-07T11:14:49.453Z,9.00
2018-05-07T11:17:19.182Z,6.30
2018-05-07T11:19:49.078Z,7.43
2018-05-07T11:22:18.729Z,7.07
2018-05-07T11:24:48.437Z,8.10
2018-05-07T11:27:18.253Z,10.13
2018-05-07T11:29:47.979Z,9.40
2018-05-07T11:32:17.736Z,6.43
2018-05-07T11:34:47.496Z,8.07
2018-05-07T11:37:17.288Z,10.53
2018-05-07T11:39:47.033Z,6.97
2018-05-07T11:42:16.767Z,10.63
2018-05-07T11:44:46.462Z,7.17
2018-05-07T11:47:16.221Z,6.50
2018-05-07T11:49:45.945Z,7.93
2018-05-07T11:52:15.620Z,9.37
2018-05-07T11:54:45.382Z,7.43
2018-05-07T11:57:15.145Z,11.27
2018-05-07T11:59:44.899Z,7.83
2018-05-07T12:02:14.667Z,9.53
2018-05-07T12:04:44.399Z,8.63
2018-05-07T12:07:14.135Z,8.60
2018-05-07T12:09:43.847Z,9.40
2018-05-07T12:12:13.615Z,8.10
2018-05-07T12:14:43.418Z,7.50
2018-05-07T12:17:13.141Z,7.67
2018-05-07T12:19:42.890Z,7.67
2018-05-07T12:22:12.616Z,9.90
2018-05-07T12:24:42.400Z,7.40
2018-05-07T12:27:12.166Z,8.23
2018-05-07T12:29:41.874Z,9.03
2018-05-07T12:32:11.645Z,9.03
2018-05-07T12:34:41.353Z,10.10
2018-05-07T12:37:11.030Z,14.97
2018-05-07T12:39:40.768Z,8.63
2018-05-07T12:42:10.484Z,9.37
2018-05-07T12:44:40.249Z,9.73
2018-05-07T12:47:09.989Z,8.63
2018-05-07T12:49:39.724Z,9.53
2018-05-07T12:52:09.445Z,9.83
2018-05-07T12:54:39.144Z,8.03
2018-05-07T12:57:08.865Z,8.57
2018-05-07T12:59:38.624Z,9.00
2018-05-07T13:02:08.409Z,10.50
2018-05-07T13:04:38.135Z,9.70
2018-05-07T13:07:07.898Z,10.43
2018-05-07T13:09:37.630Z,8.80
2018-05-07T13:12:07.303Z,9.03
2018-05-07T13:14:37.013Z,6.70
2018-05-07T13:17:08.789Z,8.70
2018-05-07T13:19:38.566Z,10.00
2018-05-07T13:22:08.312Z,8.77
2018-05-07T13:24:38.056Z,10.77
2018-05-07T13:27:07.839Z,8.10
2018-05-07T13:29:37.539Z,11.23
2018-05-07T13:32:07.276Z,8.20
2018-05-07T13:34:37.024Z,11.63
2018-05-07T13:37:06.738Z,7.57
2018-05-07T13:39:36.572Z,9.77
2018-05-07T13:42:06.349Z,8.43
2018-05-07T13:44:36.067Z,8.67
2018-05-07T13:47:05.863Z,8.03
2018-05-07T13:49:35.605Z,10.63
2018-05-07T13:52:05.362Z,6.87
2018-05-07T13:54:35.079Z,7.53
2018-05-07T13:57:04.832Z,8.77
2018-05-07T13:59:34.561Z,9.57
2018-05-07T14:02:04.267Z,9.33
2018-05-07T14:04:34.912Z,8.67
2018-05-07T14:07:04.639Z,9.90
2018-05-07T14:09:34.362Z,9.70
2018-05-07T14:12:04.106Z,11.93
2018-05-07T14:14:33.841Z,8.33
2018-05-07T14:17:03.631Z,10.33
2018-05-07T14:19:33.297Z,7.87
2018-05-07T14:22:02.997Z,9.17
2018-05-07T14:24:32.767Z,7.60
2018-05-07T14:27:02.536Z,7.30
2018-05-07T14:29:32.279Z,7.47
2018-05-07T14:32:02.078Z,9.10
2018-05-07T14:34:31.802Z,8.60
2018-05-07T14:37:01.532Z,10.00
2018-05-07T14:39:31.239Z,9.37
2018-05-07T14:42:01.027Z,11.30
2018-05-07T14:44:30.753Z,10.90
2018-05-07T14:47:00.475Z,10.03
2018-05-07T14:49:30.225Z,7.80
2018-05-07T14:51:59.961Z,10.97
2018-05-07T14:54:29.664Z,9.03
2018-05-07T14:56:59.376Z,8.20
2018-05-07T14:59:29.109Z,10.63
2018-05-07T15:01:58.855Z,7.67
2018-05-07T15:04:28.569Z,6.77
2018-05-07T15:06:58.347Z,9.80
2018-05-07T15:09:28.054Z,7.50
2018-05-07T15:11:57.792Z,6.80
2018-05-07T15:14:27.579Z,6.90
2018-05-07T15:16:57.307Z,5.97
2018-05-07T15:19:27.059Z,8.07
2018-05-07T15:21:56.771Z,6.10
2018-05-07T15:24:26.531Z,6.70
2018-05-07T15:26:56.370Z,6.93
2018-05-07T15:29:26.058Z,9.37
2018-05-07T15:31:55.770Z,7.83
2018-05-07T15:34:25.520Z,7.30
2018-05-07T15:36:55.252Z,6.53
2018-05-07T15:39:25.013Z,10.30
2018-05-07T15:41:54.715Z,6.63
2018-05-07T15:44:24.422Z,6.77
2018-05-07T15:46:54.179Z,8.50
2018-05-07T15:49:23.921Z,7.43
2018-05-07T15:51:53.677Z,9.67
2018-05-07T15:54:23.470Z,9.20
2018-05-07T15:56:53.203Z,8.23
2018-05-07T15:59:22.934Z,9.53
2018-05-07T16:01:52.638Z,6.70
2018-05-07T16:04:22.357Z,8.47
2018-05-07T16:06:52.074Z,7.30
2018-05-07T16:09:21.768Z,8.53
2018-05-07T16:11:51.576Z,10.47
2018-05-07T16:14:21.259Z,10.03
2018-05-07T16:16:51.023Z,10.20
2018-05-07T16:19:20.715Z,7.57
2018-05-07T16:21:50.448Z,13.80
2018-05-07T16:24:20.204Z,9.90
2018-05-07T16:26:49.913Z,12.30
2018-05-07T16:29:19.602Z,7.87
2018-05-07T16:31:49.284Z,8.03
2018-05-07T16:34:18.986Z,7.30
2018-05-07T16:36:48.723Z,7.47
2018-05-07T16:39:18.419Z,10.77
2018-05-07T16:41:48.102Z,6.83
2018-05-07T16:44:17.861Z,12.53
2018-05-07T16:46:47.580Z,9.63
2018-05-07T16:49:17.294Z,7.37
2018-05-07T16:51:47.007Z,8.23
2018-05-07T16:54:16.737Z,9.83
2018-05-07T16:56:46.504Z,8.60
2018-05-07T16:59:16.200Z,11.23
2018-05-07T17:01:45.957Z,9.13
2018-05-07T17:04:15.671Z,7.80
2018-05-07T17:06:45.441Z,8.20
2018-05-07T17:09:15.246Z,10.03
2018-05-07T17:11:44.919Z,10.77
2018-05-07T17:14:14.734Z,9.40
2018-05-07T17:16:44.419Z,10.30
2018-05-07T17:19:14.144Z,11.13
2018-05-07T17:21:43.896Z,9.57
2018-05-07T17:24:13.762Z,8.57
2018-05-07T17:26:43.479Z,9.87
2018-05-07T17:29:13.230Z,12.53
2018-05-07T17:31:42.969Z,10.90
2018-05-07T17:34:12.707Z,11.37
2018-05-07T17:36:42.415Z,11.53
2018-05-07T17:39:12.186Z,12.73
2018-05-07T17:41:41.892Z,10.50
2018-05-07T17:44:23.335Z,12.13
2018-05-07T17:47:04.865Z,13.00
2018-05-07T17:49:34.592Z,12.97
2018-05-07T17:52:04.340Z,13.53
2018-05-07T17:54:34.194Z,12.13
2018-05-07T17:57:03.915Z,12.13
2018-05-07T17:59:33.659Z,16.27
2018-05-07T18:02:03.378Z,12.73
2018-05-07T18:04:33.484Z,14.07
2018-05-07T18:07:03.263Z,19.23
2018-05-07T18:09:32.982Z,14.37
2018-05-07T18:12:02.758Z,12.87
2018-05-07T18:14:32.475Z,13.33
2018-05-07T18:17:02.221Z,16.17
2018-05-07T18:19:32.051Z,17.37
2018-05-07T18:22:01.802Z,14.23
2018-05-07T18:24:31.609Z,13.80
2018-05-07T18:27:01.373Z,13.10
2018-05-07T18:29:31.209Z,12.17
2018-05-07T18:32:01.176Z,16.33
2018-05-07T18:34:31.402Z,13.00
2018-05-07T18:37:01.236Z,12.13
2018-05-07T18:39:31.009Z,15.17
2018-05-07T18:42:00.893Z,15.77
2018-05-07T18:44:30.811Z,19.57
2018-05-07T18:47:00.576Z,12.13
2018-05-07T18:49:30.283Z,12.97
2018-05-07T18:52:00.002Z,13.10
2018-05-07T18:54:29.729Z,13.83
2018-05-07T18:56:59.518Z,12.60
2018-05-07T18:59:29.332Z,11.50
2018-05-07T19:01:59.166Z,15.23
2018-05-07T19:04:28.994Z,14.00
2018-05-07T19:06:59.042Z,13.07
2018-05-07T19:09:29.066Z,15.40
2018-05-07T19:11:58.865Z,15.23
2018-05-07T19:14:28.694Z,14.97
2018-05-07T19:16:58.527Z,17.17
2018-05-07T19:19:28.425Z,12.10
2018-05-07T19:21:58.243Z,14.97
2018-05-07T19:24:27.992Z,15.87
2018-05-07T19:26:57.734Z,20.20
2018-05-07T19:29:27.462Z,11.07
2018-05-07T19:31:57.197Z,13.27
2018-05-07T19:34:26.935Z,15.27
2018-05-07T19:36:56.642Z,14.73
2018-05-07T19:39:26.394Z,13.50
2018-05-07T19:41:56.105Z,12.97
2018-05-07T19:44:25.859Z,15.70
2018-05-07T19:46:55.654Z,11.87
2018-05-07T19:49:25.376Z,12.73
2018-05-07T19:51:55.162Z,13.70
2018-05-07T19:54:24.913Z,12.67
2018-05-07T19:56:54.677Z,14.97
2018-05-07T19:59:24.456Z,12.27
2018-05-07T20:01:54.208Z,11.43
2018-05-07T20:04:23.963Z,13.87
2018-05-07T20:06:53.671Z,13.27
2018-05-07T20:09:23.381Z,14.77
2018-05-07T20:11:53.155Z,15.83
2018-05-07T20:14:22.855Z,17.23
2018-05-07T20:16:52.574Z,17.27
2018-05-07T20:19:22.340Z,14.37
2018-05-07T20:21:52.094Z,15.30
2018-05-07T20:24:21.800Z,13.70
2018-05-07T20:26:51.545Z,21.57
2018-05-07T20:29:21.256Z,15.77
2018-05-07T20:31:50.992Z,16.07
2018-05-07T20:34:20.722Z,13.53
2018-05-07T20:36:50.466Z,13.63
2018-05-07T20:39:20.184Z,13.43
2018-05-07T20:41:49.881Z,15.50
2018-05-07T20:44:20.571Z,17.93
2018-05-07T20:46:50.258Z,17.77
2018-05-07T20:49:19.995Z,14.63
2018-05-07T20:51:49.741Z,17.53
2018-05-07T20:54:19.460Z,21.50
2018-05-07T20:56:50.079Z,18.10
2018-05-07T20:59:20.573Z,16.23
2018-05-07T21:01:50.437Z,17.23
2018-05-07T21:04:20.861Z,19.47
2018-05-07T21:06:51.024Z,14.70
2018-05-07T21:09:21.637Z,15.07
2018-05-07T21:11:51.930Z,16.20
2018-05-07T21:14:22.276Z,12.83
2018-05-07T21:16:52.777Z,17.93
2018-05-07T21:19:22.860Z,15.53
2018-05-07T21:21:53.304Z,13.93
2018-05-07T21:24:23.311Z,14.10
2018-05-07T21:26:53.750Z,12.80
2018-05-07T21:29:24.041Z,13.97
2018-05-07T21:31:54.564Z,10.63
2018-05-07T21:34:24.923Z,11.33
2018-05-07T21:36:54.950Z,12.73
2018-05-07T21:39:25.319Z,12.60
2018-05-07T21:41:55.616Z,11.77
2018-05-07T21:44:26.057Z,13.33
2018-05-07T21:46:56.277Z,12.07
2018-05-07T21:49:26.586Z,13.30
2018-05-07T21:51:56.477Z,14.83
2018-05-07T21:54:27.927Z,17.40
2018-05-07T21:56:57.912Z,15.47
2018-05-07T21:59:28.175Z,15.30
2018-05-07T22:01:58.915Z,13.63
2018-05-07T22:04:29.414Z,14.47
2018-05-07T22:06:59.759Z,17.10
2018-05-07T22:09:30.385Z,12.97
2018-05-07T22:12:00.807Z,13.23
2018-05-07T22:14:31.209Z,12.60
2018-05-07T22:17:01.838Z,15.70
2018-05-07T22:19:31.807Z,14.10
2018-05-07T22:22:02.424Z,12.97
2018-05-07T22:24:32.624Z,17.40
2018-05-07T22:27:02.773Z,15.33
2018-05-07T22:29:32.885Z,13.70
2018-05-07T22:32:03.664Z,16.17
2018-05-07T22:34:33.810Z,13.27
2018-05-07T22:37:03.711Z,12.60
2018-05-07T22:39:34.334Z,11.17
2018-05-07T22:42:05.163Z,12.43
2018-05-07T22:44:35.708Z,16.60
2018-05-07T22:47:06.439Z,14.90
2018-05-07T22:49:36.412Z,17.07
2018-05-07T22:52:06.863Z,17.47
2018-05-07T22:54:37.287Z,15.07
2018-05-07T22:57:07.913Z,23.53
2018-05-07T22:59:38.362Z,19.70
2018-05-07T23:02:08.804Z,19.93
2018-05-07T23:04:39.384Z,19.53
2018-05-07T23:07:09.819Z,19.97
2018-05-07T23:09:40.108Z,18.40
2018-05-07T23:12:10.675Z,23.73
2018-05-07T23:14:41.075Z,19.50
2018-05-07T23:17:11.227Z,22.60
2018-05-07T23:19:41.387Z,21.20
2018-05-07T23:22:11.906Z,22.50
2018-05-07T23:24:42.326Z,20.27
2018-05-07T23:27:13.145Z,24.93
2018-05-07T23:29:43.499Z,21.13
2018-05-07T23:32:13.545Z,19.13
2018-05-07T23:34:43.927Z,20.10
2018-05-07T23:37:14.715Z,15.40
2018-05-07T23:39:44.665Z,20.43
2018-05-07T23:42:15.201Z,17.80
2018-05-07T23:44:45.409Z,16.97
2018-05-07T23:47:15.904Z,17.83
2018-05-07T23:49:46.322Z,19.90
2018-05-07T23:52:16.394Z,19.30
2018-05-07T23:54:46.949Z,15.23
2018-05-07T23:57:17.681Z,16.53
2018-05-07T23:59:48.120Z,18.63
